Time;durP1;ratioP1;P1;durP2;ratioP2;P2;SDS_P1;SDS_P2;PMS_P1;PMS_P2;Temp;Humidity;BMP_temperature;BMP_pressure;BME280_temperature;BME280_humidity;BME280_pressure;Samples;Min_cycle;Max_cycle;Signal;HPM_P1;HPM_P2
2021/09/19 04:30:40;;;;;;;13.27;10.77;;;9.20;99.90;;;;;;6035512;23;20480;-77
2021/09/19 04:33:05;;;;;;;11.53;10.33;;;9.20;99.90;;;;;;4990018;28;20441;-76
2021/09/19 04:35:31;;;;;;;12.33;10.63;;;9.20;99.90;;;;;;5010346;28;20939;-79
2021/09/19 04:37:56;;;;;;;13.00;11.57;;;9.20;99.90;;;;;;5013230;28;20259;-79
2021/09/19 04:40:22;;;;;;;16.93;11.30;;;9.10;99.90;;;;;;5012859;28;20263;-78
2021/09/19 04:42:47;;;;;;;21.63;11.30;;;9.10;99.90;;;;;;5012275;28;20198;-76
2021/09/19 04:45:13;;;;;;;13.57;11.30;;;9.10;99.90;;;;;;5010330;28;20194;-79
2021/09/19 04:47:39;;;;;;;13.80;10.90;;;9.00;99.90;;;;;;5011501;28;20218;-77
2021/09/19 04:50:06;;;;;;;12.83;11.43;;;9.00;99.90;;;;;;5015313;28;20184;-75
2021/09/19 04:52:31;;;;;;;17.60;11.13;;;9.10;99.90;;;;;;5007785;28;20211;-80
2021/09/19 04:54:57;;;;;;;13.77;11.80;;;9.00;99.90;;;;;;5005414;28;20423;-79
2021/09/19 04:57:22;;;;;;;17.13;11.40;;;9.00;99.90;;;;;;5014532;28;20559;-80
2021/09/19 04:59:48;;;;;;;12.63;11.37;;;9.10;99.90;;;;;;5014515;28;20172;-79
2021/09/19 05:02:14;;;;;;;14.53;11.20;;;9.10;99.90;;;;;;5014344;28;20252;-81
2021/09/19 05:04:39;;;;;;;18.63;10.80;;;9.00;99.90;;;;;;5014675;28;20180;-79
2021/09/19 05:07:05;;;;;;;14.33;10.90;;;9.00;99.90;;;;;;5012351;28;20188;-79
2021/09/19 05:09:30;;;;;;;13.77;10.60;;;9.00;99.90;;;;;;5011221;28;20214;-82
2021/09/19 05:11:56;;;;;;;14.13;11.13;;;9.00;99.90;;;;;;5012995;28;20290;-79
2021/09/19 05:14:21;;;;;;;15.27;11.40;;;9.00;99.90;;;;;;5011415;28;20269;-79
2021/09/19 05:16:47;;;;;;;13.80;11.30;;;9.00;99.90;;;;;;5013649;28;20178;-81
2021/09/19 05:19:12;;;;;;;12.20;11.00;;;9.00;99.90;;;;;;5010825;28;20191;-80
2021/09/19 05:21:38;;;;;;;14.33;10.43;;;9.00;99.90;;;;;;5010803;28;20268;-80
2021/09/19 05:24:04;;;;;;;13.43;11.90;;;9.10;99.90;;;;;;5011994;28;20195;-79
2021/09/19 05:26:30;;;;;;;11.77;10.40;;;9.10;99.90;;;;;;5018113;28;20638;-80
2021/09/19 05:28:55;;;;;;;13.13;11.07;;;9.10;99.90;;;;;;5011540;28;20733;-79
2021/09/19 05:31:21;;;;;;;13.00;11.50;;;9.20;99.90;;;;;;5015415;28;20263;-80
2021/09/19 05:33:47;;;;;;;12.37;11.10;;;9.20;99.90;;;;;;4997767;28;20196;-80
2021/09/19 05:36:14;;;;;;;13.97;10.20;;;9.30;99.90;;;;;;5023405;28;20200;-79
2021/09/19 05:38:39;;;;;;;16.17;11.40;;;9.30;99.90;;;;;;5015934;28;20425;-79
2021/09/19 05:41:05;;;;;;;11.10;9.90;;;9.40;99.90;;;;;;5015587;28;20467;-80
2021/09/19 05:43:30;;;;;;;13.70;10.27;;;9.40;99.90;;;;;;5014940;28;20217;-77
2021/09/19 05:45:56;;;;;;;12.40;10.50;;;9.50;99.90;;;;;;4997128;28;20198;-78
2021/09/19 05:48:22;;;;;;;11.43;10.23;;;9.60;99.90;;;;;;5015447;28;20189;-77
2021/09/19 05:50:47;;;;;;;11.70;10.30;;;9.70;99.90;;;;;;5011832;28;20248;-78
2021/09/19 05:53:13;;;;;;;13.30;11.17;;;9.90;99.90;;;;;;5015600;28;20191;-77
2021/09/19 05:55:38;;;;;;;15.40;10.27;;;10.10;99.90;;;;;;5014415;28;20256;-77
2021/09/19 05:58:04;;;;;;;10.07;9.00;;;10.90;99.90;;;;;;5015420;28;20598;-77
2021/09/19 06:00:29;;;;;;;8.37;7.57;;;12.20;99.90;;;;;;4996838;28;20194;-78
2021/09/19 06:02:55;;;;;;;9.13;8.27;;;13.40;99.90;;;;;;5016191;28;20185;-79
2021/09/19 06:05:20;;;;;;;7.80;7.10;;;14.60;99.90;;;;;;5014352;28;20206;-79
2021/09/19 06:07:46;;;;;;;7.33;6.73;;;15.50;99.90;;;;;;5016009;28;20257;-78
2021/09/19 06:10:11;;;;;;;7.43;6.73;;;16.30;99.90;;;;;;5014428;28;20232;-79
2021/09/19 06:12:37;;;;;;;8.77;7.60;;;16.90;99.90;;;;;;5014340;28;20207;-79
2021/09/19 06:15:04;;;;;;;7.10;6.50;;;17.50;99.90;;;;;;5012415;28;20180;-79
2021/09/19 06:17:31;;;;;;;7.90;7.10;;;18.00;99.90;;;;;;5016585;28;20289;-80
2021/09/19 06:19:57;;;;;;;8.10;7.40;;;18.70;99.90;;;;;;4997344;28;20875;-77
2021/09/19 06:22:22;;;;;;;7.60;6.87;;;18.70;99.90;;;;;;5013238;28;20514;-79
2021/09/19 06:24:48;;;;;;;8.80;7.67;;;19.10;99.90;;;;;;5015765;28;20639;-79
2021/09/19 06:27:14;;;;;;;8.87;8.07;;;19.40;99.90;;;;;;5014803;28;20183;-80
2021/09/19 06:29:40;;;;;;;8.47;7.57;;;20.00;99.90;;;;;;4998083;28;20707;-79
2021/09/19 06:32:07;;;;;;;7.67;6.97;;;20.60;99.90;;;;;;5009887;28;20710;-79
2021/09/19 06:34:34;;;;;;;7.93;7.13;;;21.10;99.90;;;;;;5014967;28;20445;-79
2021/09/19 06:36:59;;;;;;;7.13;6.43;;;21.40;99.90;;;;;;5015730;28;20453;-80
2021/09/19 06:39:25;;;;;;;8.77;6.87;;;21.70;99.90;;;;;;4998972;28;20734;-79
2021/09/19 06:41:51;;;;;;;7.43;6.77;;;22.20;99.90;;;;;;5013708;28;20210;-78
2021/09/19 06:44:17;;;;;;;6.10;5.60;;;22.50;99.90;;;;;;4979212;28;20274;-79
2021/09/19 06:46:43;;;;;;;5.90;5.60;;;22.70;99.90;;;;;;5013614;28;20182;-80
2021/09/19 06:49:09;;;;;;;5.80;5.30;;;22.80;99.90;;;;;;5017521;28;20480;-80
2021/09/19 06:51:34;;;;;;;8.13;5.40;;;23.10;99.90;;;;;;4998498;28;20305;-76
2021/09/19 06:54:00;;;;;;;5.93;5.20;;;23.20;99.90;;;;;;5012352;28;20427;-78
2021/09/19 06:56:26;;;;;;;6.73;6.13;;;23.10;99.90;;;;;;5013974;28;20178;-80
2021/09/19 06:58:52;;;;;;;6.10;5.60;;;22.90;99.90;;;;;;5010508;28;20564;-79
2021/09/19 07:01:21;;;;;;;5.53;5.03;;;22.60;99.90;;;;;;5014750;28;20222;-79
2021/09/19 07:03:47;;;;;;;6.60;6.10;;;22.40;99.90;;;;;;5010806;28;20199;-77
2021/09/19 07:06:13;;;;;;;6.93;5.93;;;22.10;99.90;;;;;;5013947;28;20478;-78
2021/09/19 07:08:38;;;;;;;6.67;5.87;;;21.70;99.90;;;;;;4982059;28;20438;-77
2021/09/19 07:11:04;;;;;;;7.60;6.90;;;21.20;99.90;;;;;;4995032;28;20234;-79
2021/09/19 07:13:29;;;;;;;5.80;5.17;;;20.90;99.90;;;;;;5005197;28;20199;-80
2021/09/19 07:15:55;;;;;;;5.40;5.00;;;20.40;99.90;;;;;;5011402;28;20190;-78
2021/09/19 07:18:24;;;;;;;5.33;4.93;;;20.40;99.90;;;;;;5013200;28;20221;-79
2021/09/19 07:20:53;;;;;;;5.27;4.77;;;20.20;99.90;;;;;;5016751;28;20242;-78
2021/09/19 07:23:18;;;;;;;6.47;5.87;;;19.80;99.90;;;;;;5015735;28;20822;-81
2021/09/19 07:25:44;;;;;;;8.10;6.13;;;19.60;99.90;;;;;;5017572;28;20449;-79
2021/09/19 07:28:10;;;;;;;7.90;6.93;;;19.60;99.90;;;;;;5012326;28;20445;-78
2021/09/19 07:30:36;;;;;;;5.63;5.13;;;19.80;99.90;;;;;;5012087;28;20238;-79
2021/09/19 07:33:02;;;;;;;7.37;5.80;;;19.80;99.90;;;;;;4998733;28;20191;-79
2021/09/19 07:35:28;;;;;;;8.20;6.17;;;20.20;99.90;;;;;;5011572;28;20602;-79
2021/09/19 07:37:54;;;;;;;5.83;5.27;;;20.20;99.90;;;;;;5013603;28;20413;-79
2021/09/19 07:40:20;;;;;;;8.30;6.00;;;20.10;99.90;;;;;;5011750;28;20308;-77
2021/09/19 07:42:46;;;;;;;6.27;5.67;;;20.10;99.90;;;;;;5012184;28;20195;-79
2021/09/19 07:45:12;;;;;;;6.50;5.90;;;20.40;99.90;;;;;;5009077;28;20508;-78
2021/09/19 07:47:38;;;;;;;6.00;5.50;;;20.30;99.90;;;;;;5012237;28;20186;-77
2021/09/19 07:50:05;;;;;;;6.03;5.50;;;19.70;99.90;;;;;;5010972;28;20519;-78
2021/09/19 07:52:31;;;;;;;6.43;5.93;;;19.70;99.90;;;;;;5012369;28;20601;-74
2021/09/19 07:54:56;;;;;;;5.40;5.00;;;20.00;99.90;;;;;;5011012;28;20449;-76
2021/09/19 07:57:23;;;;;;;7.80;4.97;;;20.40;99.90;;;;;;5009188;28;20203;-74
2021/09/19 07:59:50;;;;;;;4.97;4.57;;;20.70;99.90;;;;;;5007708;28;20179;-75
2021/09/19 08:02:15;;;;;;;5.63;4.40;;;20.90;99.90;;;;;;5011977;28;20532;-73
2021/09/19 08:04:41;;;;;;;5.40;5.00;;;21.30;99.90;;;;;;4993556;28;20457;-76
2021/09/19 08:07:06;;;;;;;4.70;4.40;;;21.10;99.90;;;;;;5009198;28;20824;-74
2021/09/19 08:09:32;;;;;;;4.70;4.30;;;21.20;99.90;;;;;;5011960;28;20575;-74
2021/09/19 08:11:58;;;;;;;5.00;4.70;;;21.30;99.90;;;;;;5010615;28;20219;-74
2021/09/19 08:14:24;;;;;;;5.40;5.00;;;20.90;99.90;;;;;;5008127;28;20954;-75
2021/09/19 08:16:50;;;;;;;5.73;5.20;;;20.90;99.90;;;;;;5009869;28;20216;-75
2021/09/19 08:19:16;;;;;;;5.63;5.07;;;21.00;99.90;;;;;;5012286;28;20524;-75
2021/09/19 08:21:42;;;;;;;4.90;4.30;;;21.10;99.90;;;;;;5010485;28;20686;-74
2021/09/19 08:24:10;;;;;;;5.63;5.13;;;21.40;99.90;;;;;;5012255;28;20414;-75
2021/09/19 08:26:38;;;;;;;5.17;4.77;;;21.60;99.90;;;;;;5010837;28;20441;-74
2021/09/19 08:29:04;;;;;;;4.20;3.87;;;21.70;99.90;;;;;;5007957;28;20931;-75
2021/09/19 08:31:29;;;;;;;5.00;4.70;;;21.90;99.90;;;;;;5005929;28;20496;-74
2021/09/19 08:33:55;;;;;;;4.73;4.33;;;22.00;99.90;;;;;;5002280;28;20441;-74
2021/09/19 08:36:21;;;;;;;4.93;4.33;;;22.20;99.90;;;;;;5009213;28;20194;-74
2021/09/19 08:38:46;;;;;;;4.90;4.57;;;22.30;99.90;;;;;;5001535;28;20640;-74
2021/09/19 08:41:15;;;;;;;4.80;4.50;;;22.10;99.90;;;;;;5011929;28;20194;-74
2021/09/19 08:43:41;;;;;;;4.60;4.27;;;21.60;99.90;;;;;;5009738;28;20869;-75
2021/09/19 08:46:07;;;;;;;5.13;4.73;;;21.60;99.90;;;;;;5009613;28;20441;-75
2021/09/19 08:48:34;;;;;;;4.60;4.20;;;21.60;99.90;;;;;;5002811;28;20501;-75
2021/09/19 08:50:59;;;;;;;5.00;4.60;;;21.80;99.90;;;;;;4992087;28;20207;-75
2021/09/19 08:53:27;;;;;;;4.93;4.37;;;22.30;99.90;;;;;;5003359;28;20487;-77
2021/09/19 08:55:52;;;;;;;4.37;3.97;;;22.70;99.90;;;;;;4994173;28;20193;-77
2021/09/19 08:58:18;;;;;;;4.80;4.40;;;23.00;99.90;;;;;;5002848;28;20430;-76
2021/09/19 09:00:49;;;;;;;4.60;4.30;;;22.90;99.90;;;;;;5003595;28;20207;-77
2021/09/19 09:03:19;;;;;;;4.10;3.73;;;22.80;99.90;;;;;;5014834;28;20175;-77
2021/09/19 09:05:53;;;;;;;4.27;3.97;;;23.10;99.90;;;;;;5012887;28;20449;-77
2021/09/19 09:08:19;;;;;;;5.33;3.53;;;23.20;99.90;;;;;;5012365;28;20950;-79
2021/09/19 09:10:47;;;;;;;3.97;3.77;;;23.50;99.90;;;;;;5011047;28;20468;-78
2021/09/19 09:13:22;;;;;;;4.37;4.07;;;23.80;99.90;;;;;;5013794;28;20172;-77
2021/09/19 09:16:10;;;;;;;8.23;4.20;;;23.70;99.90;;;;;;5013442;28;20503;-75
2021/09/19 09:18:40;;;;;;;4.90;4.50;;;23.80;99.90;;;;;;5016263;28;20540;-78
2021/09/19 09:21:07;;;;;;;4.80;4.43;;;23.90;99.90;;;;;;5012997;28;21178;-77
2021/09/19 09:23:42;;;;;;;7.40;4.17;;;23.90;99.90;;;;;;5009051;28;20421;-77
2021/09/19 09:26:15;;;;;;;4.73;4.37;;;24.00;99.90;;;;;;5011870;28;20428;-75
2021/09/19 09:29:09;;;;;;;3.80;3.60;;;24.10;99.90;;;;;;5008209;28;20437;-76
2021/09/19 09:31:42;;;;;;;4.77;4.37;;;24.30;99.90;;;;;;5010862;28;20477;-76
2021/09/19 09:34:23;;;;;;;4.50;4.10;;;24.10;99.90;;;;;;5012358;28;20433;-76
2021/09/19 09:37:03;;;;;;;6.20;4.40;;;23.70;99.90;;;;;;5009621;28;20421;-78
2021/09/19 09:39:49;;;;;;;4.07;3.60;;;23.60;99.90;;;;;;5010798;28;20410;-76
2021/09/19 09:42:20;;;;;;;3.73;3.43;;;24.10;99.90;;;;;;5010340;28;20519;-76
2021/09/19 09:44:48;;;;;;;4.33;3.93;;;24.60;99.90;;;;;;5009639;28;20513;-76
2021/09/19 09:47:19;;;;;;;4.70;4.40;;;25.00;99.90;;;;;;5012708;28;20445;-75
2021/09/19 09:49:54;;;;;;;4.10;3.80;;;24.80;99.90;;;;;;5014041;28;20417;-77
2021/09/19 09:52:31;;;;;;;4.00;3.60;;;24.80;99.90;;;;;;4992584;28;20469;-76
2021/09/19 09:55:09;;;;;;;4.27;3.87;;;24.50;99.90;;;;;;5015514;28;20505;-76
2021/09/19 09:57:34;;;;;;;5.00;4.60;;;24.60;99.90;;;;;;5012824;28;20796;-76
2021/09/19 10:00:03;;;;;;;4.30;4.00;;;24.30;99.90;;;;;;5009414;28;20426;-77
2021/09/19 10:02:30;;;;;;;4.40;4.00;;;24.20;99.90;;;;;;5006365;28;20210;-76
2021/09/19 10:04:56;;;;;;;4.27;3.97;;;24.00;99.90;;;;;;5011576;28;20421;-77
2021/09/19 10:07:22;;;;;;;5.27;4.87;;;24.20;99.90;;;;;;5013456;28;20429;-75
2021/09/19 10:09:48;;;;;;;6.33;4.53;;;23.60;99.90;;;;;;5013624;28;20508;-76
2021/09/19 10:12:14;;;;;;;5.40;5.00;;;23.70;99.90;;;;;;5014371;28;20632;-76
2021/09/19 10:14:39;;;;;;;4.40;4.10;;;23.90;99.90;;;;;;5010028;28;20211;-76
2021/09/19 10:17:05;;;;;;;4.50;4.10;;;24.20;99.90;;;;;;5011476;28;20457;-76
2021/09/19 10:19:31;;;;;;;4.40;4.10;;;24.20;99.90;;;;;;5008655;28;20193;-76
2021/09/19 10:21:59;;;;;;;3.87;3.57;;;24.80;99.90;;;;;;5007824;28;20195;-78
2021/09/19 10:24:26;;;;;;;4.63;4.30;;;25.10;99.90;;;;;;4989928;28;20441;-76
2021/09/19 10:26:56;;;;;;;3.87;3.53;;;25.40;99.90;;;;;;5013958;28;20521;-78
2021/09/19 10:29:27;;;;;;;5.20;4.80;;;25.10;99.90;;;;;;5007701;28;20529;-77
2021/09/19 10:31:56;;;;;;;4.13;3.80;;;25.30;99.90;;;;;;4979087;28;20481;-77
2021/09/19 10:34:28;;;;;;;4.60;4.27;;;25.20;99.90;;;;;;5010491;28;20433;-76
2021/09/19 10:36:56;;;;;;;4.00;3.70;;;25.80;99.90;;;;;;5014047;28;20413;-77
2021/09/19 10:39:26;;;;;;;3.97;3.77;;;25.90;99.90;;;;;;5011787;28;20778;-77
2021/09/19 10:42:28;;;;;;;8.30;4.13;;;26.00;99.90;;;;;;5014094;28;20429;-77
2021/09/19 10:44:58;;;;;;;4.67;3.77;;;25.60;99.90;;;;;;5011156;28;20429;-78
2021/09/19 10:47:42;;;;;;;3.67;3.47;;;25.50;99.90;;;;;;5014088;28;20454;-78
2021/09/19 10:50:26;;;;;;;3.50;3.30;;;25.60;99.90;;;;;;5014374;28;20517;-77
2021/09/19 10:52:57;;;;;;;5.43;5.00;;;25.80;99.90;;;;;;5014054;28;20854;-77
2021/09/19 10:55:29;;;;;;;5.47;5.07;;;25.00;99.90;;;;;;5013159;28;20422;-77
2021/09/19 10:58:02;;;;;;;4.67;4.37;;;25.30;99.90;;;;;;5012227;28;20457;-78
2021/09/19 11:00:35;;;;;;;3.83;3.63;;;25.40;99.90;;;;;;5011339;28;20428;-76
2021/09/19 11:03:07;;;;;;;4.60;4.30;;;25.40;99.90;;;;;;5014009;28;20417;-78
2021/09/19 11:05:43;;;;;;;3.83;3.60;;;25.40;99.90;;;;;;5013664;28;20437;-77
2021/09/19 11:08:10;;;;;;;5.07;4.67;;;25.30;99.90;;;;;;5001291;28;21019;-77
2021/09/19 11:10:55;;;;;;;5.97;5.27;;;24.60;99.90;;;;;;5013454;28;20864;-76
2021/09/19 11:13:22;;;;;;;4.77;4.37;;;24.20;99.90;;;;;;4995986;28;20438;-77
2021/09/19 11:16:17;;;;;;;4.47;4.10;;;24.30;99.90;;;;;;5009084;28;20513;-77
2021/09/19 11:18:44;;;;;;;4.37;4.03;;;23.90;99.90;;;;;;4970710;28;20438;-79
2021/09/19 11:21:10;;;;;;;5.13;4.73;;;23.70;99.90;;;;;;4993638;28;20447;-77
2021/09/19 11:23:39;;;;;;;4.67;4.07;;;23.80;99.90;;;;;;5003721;28;20890;-78
2021/09/19 11:26:06;;;;;;;4.80;4.40;;;23.80;99.90;;;;;;5013712;28;20253;-78
2021/09/19 11:28:33;;;;;;;4.97;4.40;;;24.00;99.90;;;;;;5008109;28;20868;-77
2021/09/19 11:30:58;;;;;;;8.60;4.60;;;24.30;99.90;;;;;;4995477;28;20993;-77
2021/09/19 11:33:24;;;;;;;4.80;4.40;;;24.40;99.90;;;;;;5013084;28;20460;-77
2021/09/19 11:35:50;;;;;;;4.97;4.57;;;24.10;99.90;;;;;;5012980;28;20695;-77
2021/09/19 11:38:20;;;;;;;4.50;4.10;;;23.80;99.90;;;;;;5013115;28;20420;-75
2021/09/19 11:40:46;;;;;;;5.83;5.37;;;23.60;99.90;;;;;;5012959;28;20595;-76
2021/09/19 11:43:11;;;;;;;3.87;3.57;;;23.40;99.90;;;;;;5012318;28;20426;-77
2021/09/19 11:45:38;;;;;;;4.27;3.97;;;23.60;99.90;;;;;;5012480;28;20539;-77
2021/09/19 11:48:06;;;;;;;4.23;3.90;;;23.90;99.90;;;;;;5012381;28;20777;-77
2021/09/19 11:50:36;;;;;;;7.07;6.37;;;24.10;99.90;;;;;;5011808;28;20503;-76
2021/09/19 11:53:07;;;;;;;6.90;4.50;;;23.90;99.90;;;;;;4994789;28;20418;-77
2021/09/19 11:55:33;;;;;;;3.97;3.77;;;23.80;99.90;;;;;;5012270;28;20414;-76
2021/09/19 11:58:00;;;;;;;5.23;4.67;;;23.80;99.90;;;;;;5012212;28;20428;-77
2021/09/19 12:00:30;;;;;;;4.60;4.00;;;23.70;99.90;;;;;;5012008;28;20245;-77
2021/09/19 12:02:55;;;;;;;4.17;3.87;;;23.80;99.90;;;;;;5011985;28;20459;-77
2021/09/19 12:05:24;;;;;;;4.73;4.20;;;23.80;99.90;;;;;;5012142;28;20429;-77
2021/09/19 12:07:50;;;;;;;4.47;4.07;;;23.70;99.90;;;;;;5011906;28;20187;-77
2021/09/19 12:10:16;;;;;;;8.27;4.57;;;23.70;99.90;;;;;;5011970;28;20418;-77
2021/09/19 12:12:42;;;;;;;8.20;5.10;;;23.50;99.90;;;;;;5012551;28;20433;-76
2021/09/19 12:15:08;;;;;;;5.60;4.67;;;23.30;99.90;;;;;;5012209;28;20428;-77
2021/09/19 12:17:35;;;;;;;4.87;4.40;;;22.90;99.90;;;;;;5011799;28;20189;-76
2021/09/19 12:20:07;;;;;;;4.47;4.07;;;22.70;99.90;;;;;;5011726;28;20432;-77
2021/09/19 12:22:33;;;;;;;5.30;4.90;;;22.70;99.90;;;;;;5011683;28;20480;-77
2021/09/19 12:25:04;;;;;;;4.40;4.00;;;22.70;99.90;;;;;;5012386;28;20441;-77
2021/09/19 12:27:32;;;;;;;4.87;4.47;;;22.80;99.90;;;;;;5009546;28;20190;-77
2021/09/19 12:30:07;;;;;;;5.47;4.27;;;23.00;99.90;;;;;;5012551;28;20409;-78
2021/09/19 12:32:33;;;;;;;5.27;4.77;;;23.00;99.90;;;;;;5011760;28;20511;-77
2021/09/19 12:35:13;;;;;;;4.60;4.20;;;22.90;99.90;;;;;;5011823;28;20413;-78
2021/09/19 12:37:45;;;;;;;7.17;6.47;;;22.70;99.90;;;;;;5012565;28;20178;-77
2021/09/19 12:40:20;;;;;;;10.93;5.07;;;22.40;99.90;;;;;;5010115;28;20414;-78
2021/09/19 12:42:46;;;;;;;4.17;3.87;;;22.10;99.90;;;;;;5012310;28;20849;-77
2021/09/19 12:45:14;;;;;;;5.10;4.70;;;22.10;99.90;;;;;;5011977;28;20412;-77
2021/09/19 12:47:41;;;;;;;5.40;4.50;;;21.90;99.90;;;;;;5011577;28;20432;-77
2021/09/19 12:50:12;;;;;;;5.83;5.27;;;21.80;99.90;;;;;;5012261;28;20429;-77
2021/09/19 12:52:39;;;;;;;5.63;5.17;;;21.60;99.90;;;;;;5011540;28;20776;-77
2021/09/19 12:55:06;;;;;;;5.27;4.87;;;21.40;99.90;;;;;;5011659;28;20406;-77
2021/09/19 12:57:33;;;;;;;5.90;5.00;;;21.30;99.90;;;;;;4993908;28;20414;-77
2021/09/19 12:59:59;;;;;;;4.77;4.40;;;21.20;99.90;;;;;;5010700;28;20429;-77
2021/09/19 13:02:25;;;;;;;6.70;5.03;;;21.30;99.90;;;;;;5011472;28;20564;-77
2021/09/19 13:04:52;;;;;;;5.97;5.47;;;21.40;99.90;;;;;;4994594;28;20922;-78
2021/09/19 13:07:18;;;;;;;4.87;4.50;;;21.70;99.90;;;;;;5011877;28;20484;-77
2021/09/19 13:09:44;;;;;;;4.60;4.20;;;21.90;99.90;;;;;;5011093;28;20425;-77
2021/09/19 13:12:11;;;;;;;4.83;4.50;;;22.20;99.90;;;;;;5011221;28;20472;-78
2021/09/19 13:14:37;;;;;;;8.10;4.17;;;22.30;99.90;;;;;;5011518;28;20432;-78
2021/09/19 13:17:04;;;;;;;5.97;5.47;;;22.40;99.90;;;;;;5011577;28;20414;-77
2021/09/19 13:19:30;;;;;;;4.87;4.50;;;22.30;99.90;;;;;;5010911;28;20421;-77
2021/09/19 13:21:56;;;;;;;8.43;5.10;;;22.20;99.90;;;;;;5011354;28;20433;-77
2021/09/19 13:24:21;;;;;;;6.00;5.40;;;22.20;99.90;;;;;;5011343;28;20788;-77
2021/09/19 13:26:48;;;;;;;4.40;4.03;;;22.10;99.90;;;;;;5011375;28;20178;-77
2021/09/19 13:29:16;;;;;;;4.93;4.53;;;22.00;99.90;;;;;;5011266;28;20181;-76
2021/09/19 13:31:42;;;;;;;4.80;4.40;;;22.10;99.90;;;;;;4993210;28;20473;-77
2021/09/19 13:34:07;;;;;;;4.50;4.20;;;21.90;99.90;;;;;;5011345;28;20851;-77
2021/09/19 13:36:33;;;;;;;5.23;4.73;;;21.70;99.90;;;;;;5011008;28;20444;-77
2021/09/19 13:38:58;;;;;;;4.40;4.03;;;21.50;99.90;;;;;;5011326;28;20339;-78
2021/09/19 13:41:24;;;;;;;4.77;4.37;;;21.30;99.90;;;;;;5011157;28;20248;-77
2021/09/19 13:43:51;;;;;;;4.63;4.33;;;21.10;99.90;;;;;;5012414;28;20198;-77
2021/09/19 13:46:17;;;;;;;7.43;5.10;;;21.10;99.90;;;;;;4997242;28;20183;-77
2021/09/19 13:48:45;;;;;;;4.87;3.87;;;21.10;99.90;;;;;;5014554;28;20420;-76
2021/09/19 13:51:11;;;;;;;4.90;4.50;;;21.10;99.90;;;;;;5014653;28;20465;-76
2021/09/19 13:53:36;;;;;;;4.93;4.53;;;21.20;99.90;;;;;;5014451;28;20417;-77
2021/09/19 13:56:02;;;;;;;4.80;4.33;;;21.20;99.90;;;;;;5014741;28;20181;-78
2021/09/19 13:58:28;;;;;;;4.40;4.10;;;21.20;99.90;;;;;;5014225;28;20241;-77
2021/09/19 14:00:53;;;;;;;5.03;4.63;;;21.20;99.90;;;;;;5014481;28;20198;-77
2021/09/19 14:03:19;;;;;;;5.20;4.80;;;21.30;99.90;;;;;;5014549;28;20178;-77
2021/09/19 14:05:44;;;;;;;4.63;4.33;;;21.20;99.90;;;;;;5014632;28;20190;-78
2021/09/19 14:08:11;;;;;;;5.30;4.90;;;20.90;99.90;;;;;;5014270;28;20710;-77
2021/09/19 14:10:37;;;;;;;5.10;4.70;;;20.90;99.90;;;;;;5014406;28;20294;-77
2021/09/19 14:13:03;;;;;;;4.70;4.30;;;20.90;99.90;;;;;;5014383;28;20410;-77
2021/09/19 14:15:29;;;;;;;5.60;5.10;;;20.70;99.90;;;;;;5014301;28;20402;-77
2021/09/19 14:17:55;;;;;;;4.90;4.50;;;20.80;99.90;;;;;;5014139;28;20406;-77
2021/09/19 14:20:20;;;;;;;4.60;4.17;;;20.80;99.90;;;;;;5014039;28;20543;-76
2021/09/19 14:22:46;;;;;;;6.80;4.60;;;20.80;99.90;;;;;;4996178;28;20198;-76
2021/09/19 14:25:13;;;;;;;4.53;4.13;;;20.80;99.90;;;;;;5014060;28;20339;-76
2021/09/19 14:27:39;;;;;;;4.73;4.30;;;20.90;99.90;;;;;;5013793;28;20764;-77
2021/09/19 14:30:06;;;;;;;5.00;4.20;;;20.80;99.90;;;;;;4996146;28;20417;-77
2021/09/19 14:32:32;;;;;;;5.90;4.50;;;20.70;99.90;;;;;;5013410;28;20555;-76
2021/09/19 14:34:57;;;;;;;6.97;6.37;;;20.60;99.90;;;;;;4996312;28;20413;-77
2021/09/19 14:37:23;;;;;;;4.80;4.40;;;20.50;99.90;;;;;;5013696;28;20233;-77
2021/09/19 14:39:49;;;;;;;4.60;4.20;;;20.30;99.90;;;;;;5013392;28;20640;-77
2021/09/19 14:42:15;;;;;;;5.50;5.10;;;20.30;99.90;;;;;;5013637;28;20556;-77
2021/09/19 14:44:40;;;;;;;4.57;4.17;;;20.30;99.90;;;;;;5013526;28;20193;-76
2021/09/19 14:47:06;;;;;;;5.33;4.83;;;20.30;99.90;;;;;;5013785;28;20171;-77
2021/09/19 14:49:31;;;;;;;4.90;4.60;;;20.40;99.90;;;;;;5013302;28;20175;-76
2021/09/19 14:51:57;;;;;;;5.63;5.13;;;20.40;99.90;;;;;;5013417;28;20687;-77
2021/09/19 14:54:22;;;;;;;4.40;4.10;;;20.40;99.90;;;;;;5013274;28;20779;-77
2021/09/19 14:56:48;;;;;;;5.30;4.90;;;20.50;99.90;;;;;;5012758;28;20171;-77
2021/09/19 14:59:14;;;;;;;4.13;3.93;;;20.50;99.90;;;;;;5013236;28;20543;-77
2021/09/19 15:01:40;;;;;;;4.60;4.30;;;20.40;99.90;;;;;;5013197;28;20213;-77
2021/09/19 15:04:05;;;;;;;4.77;4.40;;;20.20;99.90;;;;;;5013259;28;20182;-77
2021/09/19 15:06:31;;;;;;;4.30;4.00;;;20.10;99.90;;;;;;5013189;28;20209;-77
2021/09/19 15:08:57;;;;;;;4.70;4.30;;;20.20;99.90;;;;;;5012870;28;20178;-77
2021/09/19 15:11:22;;;;;;;4.77;4.27;;;20.20;99.90;;;;;;5012956;28;20221;-76
2021/09/19 15:13:48;;;;;;;4.77;4.47;;;20.20;99.90;;;;;;4995553;28;20178;-76
2021/09/19 15:16:13;;;;;;;4.77;4.43;;;20.10;99.90;;;;;;5012560;28;20637;-77
2021/09/19 15:18:39;;;;;;;3.60;3.40;;;20.00;99.90;;;;;;5012681;28;20269;-77
2021/09/19 15:21:10;;;;;;;4.00;3.80;;;20.00;99.90;;;;;;5012804;28;20190;-77
2021/09/19 15:23:36;;;;;;;4.37;3.97;;;19.90;99.90;;;;;;5012690;28;20414;-76
2021/09/19 15:26:04;;;;;;;5.00;4.60;;;20.00;99.90;;;;;;5012800;28;20441;-76
2021/09/19 15:28:29;;;;;;;4.03;3.80;;;19.80;99.90;;;;;;4995086;28;20436;-76
2021/09/19 15:30:55;;;;;;;5.33;4.73;;;19.80;99.90;;;;;;5012268;28;20544;-76
2021/09/19 15:33:21;;;;;;;4.20;3.90;;;19.70;99.90;;;;;;5012551;28;20575;-76
2021/09/19 15:35:46;;;;;;;6.73;4.33;;;19.70;99.90;;;;;;4995038;28;20640;-76
2021/09/19 15:38:12;;;;;;;4.40;4.10;;;19.60;99.90;;;;;;5012379;28;20205;-76
2021/09/19 15:40:56;;;;;;;5.03;4.53;;;19.60;99.90;;;;;;5012371;28;20174;-77
2021/09/19 15:43:24;;;;;;;4.90;4.33;;;19.60;99.90;;;;;;5012368;28;20183;-76
2021/09/19 15:45:55;;;;;;;4.40;4.10;;;19.60;99.90;;;;;;5012476;28;20418;-77
2021/09/19 15:48:21;;;;;;;6.03;4.97;;;19.50;99.90;;;;;;5012200;28;20409;-76
2021/09/19 15:50:46;;;;;;;4.90;4.50;;;19.50;99.90;;;;;;5012221;28;20552;-75
2021/09/19 15:53:12;;;;;;;4.03;3.70;;;19.40;99.90;;;;;;5012215;28;20225;-76
2021/09/19 15:55:38;;;;;;;4.67;4.30;;;19.30;99.90;;;;;;5012359;28;20686;-77
2021/09/19 15:58:04;;;;;;;4.40;4.00;;;19.30;99.90;;;;;;5012350;28;20198;-76
2021/09/19 16:00:29;;;;;;;4.20;3.90;;;19.30;99.90;;;;;;4994671;28;20210;-77
2021/09/19 16:02:58;;;;;;;4.40;4.00;;;19.30;99.90;;;;;;5012477;28;20499;-76
2021/09/19 16:05:24;;;;;;;5.43;5.07;;;19.30;99.90;;;;;;5012154;28;20174;-77
2021/09/19 16:07:49;;;;;;;8.30;4.53;;;19.30;99.90;;;;;;5011259;28;20420;-77
2021/09/19 16:10:15;;;;;;;4.70;4.30;;;19.20;99.90;;;;;;5011805;28;20224;-77
2021/09/19 16:12:40;;;;;;;4.03;3.70;;;19.10;99.90;;;;;;5011840;28;20203;-76
2021/09/19 16:15:06;;;;;;;4.20;3.80;;;18.90;99.90;;;;;;4994626;28;20182;-77
2021/09/19 16:17:32;;;;;;;5.30;3.53;;;18.80;99.90;;;;;;5011926;28;20274;-76
2021/09/19 16:19:57;;;;;;;4.90;4.50;;;18.80;99.90;;;;;;5011823;28;20426;-76
2021/09/19 16:22:23;;;;;;;5.00;4.60;;;18.70;99.90;;;;;;5011482;28;20277;-76
2021/09/19 16:24:48;;;;;;;4.50;4.20;;;18.70;99.90;;;;;;5012058;28;20181;-76
2021/09/19 16:27:14;;;;;;;4.40;4.10;;;18.60;99.90;;;;;;5011729;28;20174;-76
2021/09/19 16:29:40;;;;;;;4.10;3.80;;;18.50;99.90;;;;;;5011735;28;20175;-77
2021/09/19 16:32:05;;;;;;;6.90;4.07;;;18.50;99.90;;;;;;5011335;28;20253;-77
2021/09/19 16:34:31;;;;;;;4.13;3.90;;;18.40;99.90;;;;;;5011736;28;20544;-76
2021/09/19 16:36:56;;;;;;;5.50;4.20;;;18.30;99.90;;;;;;5011738;28;20174;-78
2021/09/19 16:39:22;;;;;;;4.23;3.93;;;18.30;99.90;;;;;;5011336;28;20726;-76
2021/09/19 16:41:48;;;;;;;4.67;4.30;;;18.20;99.90;;;;;;5011783;28;20198;-77
2021/09/19 16:44:13;;;;;;;5.80;5.40;;;18.10;99.90;;;;;;5011512;28;20648;-77
2021/09/19 16:46:39;;;;;;;4.63;4.20;;;18.00;99.90;;;;;;5011835;28;20178;-77
2021/09/19 16:49:04;;;;;;;6.00;5.50;;;17.90;99.90;;;;;;5011290;28;20179;-77
2021/09/19 16:51:30;;;;;;;4.30;4.00;;;17.80;99.90;;;;;;5011512;28;20210;-77
2021/09/19 16:53:55;;;;;;;5.40;4.90;;;17.80;99.90;;;;;;5011625;28;20266;-78
2021/09/19 16:56:21;;;;;;;4.57;4.27;;;17.70;99.90;;;;;;5011589;28;20250;-77
2021/09/19 16:58:46;;;;;;;5.00;4.60;;;17.60;99.90;;;;;;5011343;28;20183;-76
2021/09/19 17:01:13;;;;;;;5.73;4.90;;;17.60;99.90;;;;;;5011692;28;20198;-78
2021/09/19 17:03:40;;;;;;;5.60;5.10;;;17.50;99.90;;;;;;4993743;28;20183;-77
2021/09/19 17:06:05;;;;;;;4.30;3.90;;;17.40;99.90;;;;;;5011544;28;20414;-77
2021/09/19 17:08:31;;;;;;;10.40;4.43;;;17.40;99.90;;;;;;5011390;28;20468;-78
2021/09/19 17:10:56;;;;;;;4.87;4.47;;;17.30;99.90;;;;;;5011444;28;20207;-77
2021/09/19 17:13:22;;;;;;;4.00;3.73;;;17.30;99.90;;;;;;5011558;28;20182;-78
2021/09/19 17:15:48;;;;;;;4.10;3.80;;;17.20;99.90;;;;;;5010897;28;20174;-77